South Londonderry, Vermont
Current Conditions -  °F | °C
As of 11:35 AM on Wednesday 26 Nov 2014 (Local Time) from KVSF Reporting Station
Light Snow Light Snow  
Wind Chill: 25°   Ceiling: 2800
Heat Index: 33°   Visibility: 1.5mi
Dew Point: 26°   Wind: 9mph
Humidity: 75%   Direction: 90°E
Pressure: 30.17"   Gusts: NA
Location:  43.15°N, 72.84°W
Report Text: KVSF 261635Z AUTO 09008KT 1 1/2SM -SN OVC028 01/M03 A3017 RMK AO2 VIS 3/4V5 SNB28 P0000 T00061033
Loading
Personal Weather Stations






























Interactive Weather Map New forecast layout! Learn more

10-Day Weather Forecast

Advertisements
Track Severe Weather on mobile